createdAt,value
2022-11-15T00:01:58.852Z,26.42
2022-11-15T00:04:44.591Z,25.38
2022-11-15T00:07:54.047Z,25.85
2022-11-15T00:10:36.624Z,23.75
2022-11-15T00:13:22.065Z,24.55
2022-11-15T00:16:09.859Z,25.02
2022-11-15T00:18:55.856Z,23.25
2022-11-15T00:21:41.524Z,24.38
2022-11-15T00:24:27.132Z,25.80
2022-11-15T00:27:12.667Z,24.35
2022-11-15T00:29:58.479Z,24.60
2022-11-15T00:32:44.398Z,24.02
2022-11-15T00:35:39.421Z,23.58
2022-11-15T00:38:24.839Z,23.02
2022-11-15T00:41:10.723Z,22.92
2022-11-15T00:43:56.358Z,22.63
2022-11-15T00:46:41.837Z,22.27
2022-11-15T00:49:27.775Z,21.63
2022-11-15T00:52:13.760Z,21.17
2022-11-15T00:54:59.424Z,21.50
2022-11-15T00:57:47.070Z,21.75
2022-11-15T01:00:32.676Z,21.42
2022-11-15T01:03:18.136Z,21.58
2022-11-15T01:06:05.152Z,22.73
2022-11-15T01:08:50.974Z,23.10
2022-11-15T01:11:36.744Z,18.23
2022-11-15T01:14:25.381Z,19.73
2022-11-15T01:17:11.539Z,21.10
2022-11-15T01:19:57.372Z,19.25
2022-11-15T01:22:43.029Z,19.95
2022-11-15T01:25:29.064Z,20.30
2022-11-15T01:28:14.654Z,19.45
2022-11-15T01:31:03.638Z,19.92
2022-11-15T01:33:50.127Z,19.17
2022-11-15T01:36:35.919Z,19.38
2022-11-15T01:39:21.436Z,19.48
2022-11-15T01:42:06.910Z,20.10
2022-11-15T01:44:55.784Z,20.45
2022-11-15T01:47:52.540Z,19.90
2022-11-15T01:50:38.296Z,18.88
2022-11-15T01:53:26.865Z,19.73
2022-11-15T01:56:23.992Z,19.08
2022-11-15T01:59:11.504Z,18.40
2022-11-15T02:01:57.802Z,18.45
2022-11-15T02:04:49.005Z,19.70
2022-11-15T02:07:37.037Z,20.25
2022-11-15T02:10:25.944Z,20.42
2022-11-15T02:13:12.048Z,19.00
2022-11-15T02:16:44.508Z,19.90
2022-11-15T02:19:32.901Z,18.48
2022-11-15T02:22:46.543Z,18.10
2022-11-15T02:26:35.971Z,18.25
2022-11-15T02:29:54.832Z,18.90
2022-11-15T02:32:53.305Z,18.33
2022-11-15T02:35:47.126Z,19.48
2022-11-15T02:39:08.828Z,21.02
2022-11-15T02:42:50.999Z,19.05
2022-11-15T02:46:21.006Z,18.23
2022-11-15T02:49:06.859Z,20.20
2022-11-15T02:51:55.884Z,19.52
2022-11-15T02:54:41.548Z,20.02
2022-11-15T02:58:05.413Z,19.75
2022-11-15T03:01:34.990Z,19.73
2022-11-15T03:04:48.463Z,21.25
2022-11-15T03:08:03.538Z,19.00
2022-11-15T03:11:19.395Z,19.83
2022-11-15T03:14:40.651Z,20.88
2022-11-15T03:17:42.143Z,18.73
2022-11-15T03:20:31.299Z,21.10
2022-11-15T03:23:18.666Z,20.13
2022-11-15T03:26:13.066Z,20.00
2022-11-15T03:29:12.135Z,19.48
2022-11-15T03:32:26.776Z,19.73
2022-11-15T03:35:34.638Z,20.73
2022-11-15T03:38:31.497Z,20.37
2022-11-15T03:41:40.592Z,19.17
2022-11-15T03:45:02.539Z,20.65
2022-11-15T03:48:06.942Z,20.00
2022-11-15T03:50:54.420Z,20.13
2022-11-15T03:53:42.109Z,20.65
2022-11-15T03:56:27.644Z,20.13
2022-11-15T03:59:13.269Z,19.90
2022-11-15T04:01:58.798Z,21.77
2022-11-15T04:04:44.648Z,21.13
2022-11-15T04:07:30.442Z,21.20
2022-11-15T04:10:17.336Z,19.27
2022-11-15T04:13:04.679Z,21.65
2022-11-15T04:15:50.222Z,22.70
2022-11-15T04:18:36.072Z,21.42
2022-11-15T04:21:40.197Z,22.10
2022-11-15T04:24:25.985Z,23.38
2022-11-15T04:27:13.948Z,21.00
2022-11-15T04:29:59.739Z,22.50
2022-11-15T04:32:45.416Z,22.08
2022-11-15T04:35:31.575Z,22.35
2022-11-15T04:38:17.132Z,24.20
2022-11-15T04:41:03.694Z,22.63
2022-11-15T04:43:49.616Z,24.58
2022-11-15T04:46:35.218Z,23.67
2022-11-15T04:49:20.908Z,22.23
2022-11-15T04:52:06.699Z,22.95
2022-11-15T04:54:52.455Z,21.88
2022-11-15T04:57:39.108Z,24.77
2022-11-15T05:00:24.739Z,23.17
2022-11-15T05:03:29.979Z,23.50
2022-11-15T05:06:18.536Z,22.90
2022-11-15T05:09:05.533Z,21.30
2022-11-15T05:11:51.626Z,23.20
2022-11-15T05:14:37.239Z,24.83
2022-11-15T05:17:23.127Z,21.30
2022-11-15T05:20:09.986Z,23.30
2022-11-15T05:22:56.647Z,25.67
2022-11-15T05:25:42.221Z,24.87
2022-11-15T05:28:28.225Z,26.52
2022-11-15T05:31:17.439Z,26.17
2022-11-15T05:34:06.392Z,25.33
2022-11-15T05:36:52.483Z,23.73
2022-11-15T05:39:38.272Z,27.27
2022-11-15T05:42:23.930Z,26.08
2022-11-15T05:45:10.544Z,23.15
2022-11-15T05:48:02.286Z,23.40
2022-11-15T05:50:49.000Z,24.38
2022-11-15T05:53:36.340Z,24.33
2022-11-15T05:56:22.216Z,26.25
2022-11-15T05:59:11.425Z,23.63
2022-11-15T06:01:57.649Z,23.73
2022-11-15T06:04:43.679Z,22.95
2022-11-15T06:07:32.088Z,23.38
2022-11-15T06:10:18.152Z,22.10
2022-11-15T06:13:06.107Z,25.05
2022-11-15T06:15:52.102Z,23.38
2022-11-15T06:18:39.035Z,24.77
2022-11-15T06:21:25.108Z,23.15
2022-11-15T06:24:10.585Z,23.58
2022-11-15T06:26:56.478Z,21.27
2022-11-15T06:29:41.895Z,21.92
2022-11-15T06:32:27.965Z,22.10
2022-11-15T06:35:15.598Z,23.50
2022-11-15T06:38:11.676Z,23.40
2022-11-15T06:41:09.381Z,20.60
2022-11-15T06:43:55.211Z,21.98
2022-11-15T06:46:41.010Z,21.92
2022-11-15T06:49:26.869Z,22.60
2022-11-15T06:52:12.711Z,21.80
2022-11-15T06:54:58.595Z,23.00
2022-11-15T06:57:53.319Z,22.10
2022-11-15T07:00:39.485Z,20.70
2022-11-15T07:03:25.313Z,20.35
2022-11-15T07:06:11.576Z,21.13
2022-11-15T07:08:57.359Z,20.90
2022-11-15T07:11:42.906Z,20.38
2022-11-15T07:14:28.467Z,22.52
2022-11-15T07:17:14.335Z,20.73
2022-11-15T07:20:01.410Z,20.40
2022-11-15T07:22:47.301Z,21.73
2022-11-15T07:25:33.378Z,22.17
2022-11-15T07:28:19.121Z,20.52
2022-11-15T07:31:08.570Z,20.50
2022-11-15T07:33:54.320Z,21.48
2022-11-15T07:36:40.030Z,19.67
2022-11-15T07:39:25.669Z,20.33
2022-11-15T07:42:43.996Z,20.23
2022-11-15T07:45:30.555Z,17.55
2022-11-15T07:48:16.000Z,19.08
2022-11-15T07:51:01.993Z,20.67
2022-11-15T07:53:47.729Z,20.50
2022-11-15T07:56:33.328Z,18.58
2022-11-15T07:59:20.316Z,18.70
2022-11-15T08:02:06.909Z,17.73
2022-11-15T08:04:52.577Z,18.55
2022-11-15T08:07:39.121Z,19.55
2022-11-15T08:10:26.031Z,17.50
2022-11-15T08:13:14.345Z,18.23
2022-11-15T08:16:06.331Z,17.23
2022-11-15T08:18:52.310Z,18.98
2022-11-15T08:21:38.296Z,17.73
2022-11-15T08:24:24.161Z,17.80
2022-11-15T08:27:18.643Z,16.92
2022-11-15T08:30:05.771Z,14.35
2022-11-15T08:32:53.493Z,15.33
2022-11-15T08:38:25.633Z,12.45
2022-11-15T08:41:25.893Z,13.00
2022-11-15T08:44:11.353Z,11.93
2022-11-15T08:46:56.918Z,12.38
2022-11-15T08:49:42.741Z,12.25
2022-11-15T08:52:28.732Z,11.80
2022-11-15T08:55:16.839Z,12.02
2022-11-15T08:58:03.082Z,13.15
2022-11-15T09:00:49.172Z,10.48
2022-11-15T09:03:34.658Z,10.48
2022-11-15T09:06:20.533Z,9.88
2022-11-15T09:09:06.280Z,10.45
2022-11-15T09:11:52.177Z,10.32
2022-11-15T09:14:38.326Z,9.93
2022-11-15T09:17:25.168Z,8.93
2022-11-15T09:20:11.646Z,9.52
2022-11-15T09:23:05.442Z,8.30
2022-11-15T09:25:51.988Z,8.48
2022-11-15T09:28:39.111Z,8.23
2022-11-15T09:31:25.474Z,9.05
2022-11-15T09:34:12.388Z,9.27
2022-11-15T09:36:57.928Z,9.50
2022-11-15T09:39:43.569Z,7.95
2022-11-15T09:43:26.749Z,8.95
2022-11-15T09:47:08.180Z,7.85
2022-11-15T09:50:29.914Z,6.25
2022-11-15T09:52:57.537Z,6.85
2022-11-15T09:55:54.601Z,6.85
2022-11-15T09:58:45.385Z,5.80
2022-11-15T10:01:58.356Z,5.70
2022-11-15T10:04:27.949Z,6.28
2022-11-15T10:07:45.810Z,4.82
2022-11-15T10:10:47.892Z,4.60
2022-11-15T10:13:41.204Z,4.28
2022-11-15T10:16:46.671Z,4.25
2022-11-15T10:19:31.691Z,4.85
2022-11-15T10:22:17.705Z,5.40
2022-11-15T10:24:48.881Z,4.97
2022-11-15T10:27:20.354Z,4.28
2022-11-15T10:29:51.415Z,3.45
2022-11-15T10:32:22.280Z,3.60
2022-11-15T10:34:51.504Z,3.40
2022-11-15T10:37:33.179Z,3.40
2022-11-15T10:40:25.135Z,3.92
2022-11-15T10:43:12.029Z,2.72
2022-11-15T10:45:39.541Z,3.13
2022-11-15T10:48:15.740Z,2.80
2022-11-15T10:50:47.436Z,2.35
2022-11-15T10:53:45.746Z,3.08
2022-11-15T10:56:16.759Z,2.65
2022-11-15T10:58:54.266Z,3.05
2022-11-15T11:01:30.690Z,2.58
2022-11-15T11:04:09.593Z,2.40
2022-11-15T11:06:50.559Z,2.65
2022-11-15T11:09:39.796Z,2.20
2022-11-15T11:12:13.073Z,2.60
2022-11-15T11:14:41.014Z,2.53
2022-11-15T11:18:02.948Z,10.23
2022-11-15T11:20:54.915Z,2.42
2022-11-15T11:23:55.103Z,3.03
2022-11-15T11:27:03.908Z,2.70
2022-11-15T11:30:12.334Z,2.50
2022-11-15T11:33:32.499Z,3.33
2022-11-15T11:36:53.644Z,2.60
2022-11-15T11:39:57.161Z,2.17
2022-11-15T11:42:45.795Z,3.33
2022-11-15T11:45:24.996Z,2.33
2022-11-15T11:48:24.530Z,2.53
2022-11-15T11:50:53.094Z,2.53
2022-11-15T11:53:42.242Z,2.50
2022-11-15T11:56:33.628Z,2.25
2022-11-15T11:59:35.606Z,2.45
2022-11-15T12:02:39.257Z,2.05
2022-11-15T12:05:41.294Z,2.20
2022-11-15T12:08:32.828Z,2.08
2022-11-15T12:11:29.605Z,2.95
2022-11-15T12:14:09.164Z,2.72
2022-11-15T12:16:43.796Z,2.25
2022-11-15T12:19:11.081Z,2.30
2022-11-15T12:22:01.334Z,2.75
2022-11-15T12:24:46.460Z,1.90
2022-11-15T12:27:42.021Z,2.63
2022-11-15T12:30:19.696Z,2.70
2022-11-15T12:33:02.266Z,2.35
2022-11-15T12:35:43.943Z,2.30
2022-11-15T12:38:54.606Z,1.83
2022-11-15T12:41:35.681Z,2.53
2022-11-15T12:44:05.384Z,1.67
2022-11-15T12:46:32.453Z,1.95
2022-11-15T12:49:28.629Z,2.50
2022-11-15T12:51:58.875Z,2.72
2022-11-15T12:54:25.914Z,2.50
2022-11-15T12:57:04.949Z,2.42
2022-11-15T13:00:13.510Z,2.63
2022-11-15T13:02:46.215Z,2.33
2022-11-15T13:05:19.512Z,2.35
2022-11-15T13:07:46.622Z,2.72
2022-11-15T13:10:13.855Z,2.10
2022-11-15T13:12:46.940Z,2.42
2022-11-15T13:15:14.011Z,2.42
2022-11-15T13:17:47.218Z,2.22
2022-11-15T13:20:17.205Z,2.22
2022-11-15T13:22:53.443Z,2.13
2022-11-15T13:25:56.266Z,2.40
2022-11-15T13:28:36.794Z,1.83
2022-11-15T13:31:38.887Z,1.80
2022-11-15T13:34:50.964Z,1.83
2022-11-15T13:37:21.899Z,2.42
2022-11-15T13:39:50.691Z,1.73
2022-11-15T13:42:21.397Z,2.10
2022-11-15T13:45:05.749Z,2.08
2022-11-15T13:47:33.232Z,3.03
2022-11-15T13:50:09.616Z,2.50
2022-11-15T13:52:43.993Z,1.77
2022-11-15T13:55:23.344Z,2.60
2022-11-15T13:57:58.355Z,2.67
2022-11-15T14:00:47.351Z,2.10
2022-11-15T14:03:28.904Z,1.90
2022-11-15T14:06:17.065Z,2.08
2022-11-15T14:09:30.002Z,1.98
2022-11-15T14:11:58.538Z,2.22
2022-11-15T14:14:30.065Z,2.50
2022-11-15T14:17:01.375Z,2.35
2022-11-15T14:19:28.449Z,1.80
2022-11-15T14:22:26.463Z,2.17
2022-11-15T14:28:25.085Z,1.73
2022-11-15T14:31:00.652Z,1.95
2022-11-15T14:33:40.538Z,1.95
2022-11-15T14:36:18.502Z,1.95
2022-11-15T14:38:47.116Z,2.63
2022-11-15T14:41:27.493Z,2.08
2022-11-15T14:43:55.121Z,1.88
2022-11-15T14:46:22.287Z,2.38
2022-11-15T14:48:49.508Z,1.80
2022-11-15T14:51:20.322Z,1.88
2022-11-15T14:53:49.032Z,1.98
2022-11-15T14:56:17.675Z,2.58
2022-11-15T14:58:44.951Z,1.88
2022-11-15T15:01:24.103Z,2.80
2022-11-15T15:03:57.995Z,3.13
2022-11-15T15:06:26.491Z,2.13
2022-11-15T15:08:53.755Z,2.53
2022-11-15T15:11:32.740Z,2.38
2022-11-15T15:14:02.081Z,2.90
2022-11-15T15:16:30.382Z,2.47
2022-11-15T15:18:57.576Z,2.63
2022-11-15T15:21:33.826Z,2.40
2022-11-15T15:24:04.534Z,2.88
2022-11-15T15:26:36.059Z,2.38
2022-11-15T15:29:03.230Z,3.15
2022-11-15T15:31:31.477Z,2.58
2022-11-15T15:33:58.624Z,1.50
2022-11-15T15:36:25.777Z,1.95
2022-11-15T15:38:53.502Z,1.77
2022-11-15T15:41:20.687Z,1.83
2022-11-15T15:43:48.576Z,2.47
2022-11-15T15:46:19.206Z,2.00
2022-11-15T15:48:47.400Z,2.20
2022-11-15T15:51:20.107Z,2.00
2022-11-15T15:53:49.612Z,2.40
2022-11-15T15:56:16.774Z,3.45
2022-11-15T15:58:44.222Z,3.00
2022-11-15T16:01:11.410Z,1.73
2022-11-15T16:03:38.571Z,2.50
2022-11-15T16:06:06.287Z,2.58
2022-11-15T16:08:47.642Z,1.75
2022-11-15T16:11:20.642Z,2.03
2022-11-15T16:13:47.785Z,2.25
2022-11-15T16:16:15.432Z,2.95
2022-11-15T16:18:42.612Z,2.25
2022-11-15T16:21:10.289Z,2.58
2022-11-15T16:23:37.502Z,2.83
2022-11-15T16:26:25.927Z,3.28
2022-11-15T16:28:53.798Z,2.22
2022-11-15T16:31:24.239Z,2.50
2022-11-15T16:33:51.384Z,2.40
2022-11-15T16:36:30.685Z,3.30
2022-11-15T16:39:00.455Z,2.80
2022-11-15T16:41:27.704Z,3.17
2022-11-15T16:43:55.025Z,3.03
2022-11-15T16:46:28.504Z,3.40
2022-11-15T16:48:56.229Z,3.00
2022-11-15T16:51:24.202Z,2.90
2022-11-15T16:53:51.492Z,3.35
2022-11-15T16:56:30.647Z,3.70
2022-11-15T16:59:00.652Z,2.60
2022-11-15T17:01:35.612Z,3.58
2022-11-15T17:04:12.550Z,3.95
2022-11-15T17:06:43.085Z,3.22
2022-11-15T17:09:26.250Z,3.45
2022-11-15T17:11:54.203Z,3.28
2022-11-15T17:14:21.664Z,3.88
2022-11-15T17:16:48.911Z,3.92
2022-11-15T17:19:20.283Z,3.50
2022-11-15T17:21:51.733Z,3.95
2022-11-15T17:24:20.935Z,3.88
2022-11-15T17:26:48.345Z,3.53
2022-11-15T17:29:15.564Z,3.95
2022-11-15T17:31:42.725Z,3.30
2022-11-15T17:34:09.908Z,3.80
2022-11-15T17:36:37.068Z,3.50
2022-11-15T17:39:05.406Z,3.97
2022-11-15T17:41:32.724Z,4.63
2022-11-15T17:44:03.001Z,3.72
2022-11-15T17:46:30.955Z,4.75
2022-11-15T17:48:58.598Z,5.03
2022-11-15T17:51:26.121Z,4.75
2022-11-15T17:53:53.383Z,4.75
2022-11-15T17:56:24.329Z,4.72
2022-11-15T17:58:59.273Z,4.85
2022-11-15T18:01:33.832Z,5.30
2022-11-15T18:04:07.477Z,4.93
2022-11-15T18:06:36.678Z,4.72
2022-11-15T18:09:05.677Z,5.55
2022-11-15T18:11:41.346Z,5.32
2022-11-15T18:14:14.567Z,5.25
2022-11-15T18:16:42.588Z,5.22
2022-11-15T18:19:13.992Z,5.13
2022-11-15T18:21:59.158Z,5.05
2022-11-15T18:24:38.400Z,5.63
2022-11-15T18:27:09.123Z,6.32
2022-11-15T18:29:38.010Z,6.10
2022-11-15T18:32:11.844Z,5.78
2022-11-15T18:34:39.273Z,5.72
2022-11-15T18:37:06.877Z,6.05
2022-11-15T18:39:34.523Z,7.18
2022-11-15T18:42:01.956Z,5.53
2022-11-15T18:44:30.311Z,5.50
2022-11-15T18:46:58.320Z,6.03
2022-11-15T18:49:25.864Z,5.90
2022-11-15T18:51:53.086Z,5.80
2022-11-15T18:54:20.254Z,5.70
2022-11-15T18:56:47.549Z,5.90
2022-11-15T18:59:16.402Z,5.68
2022-11-15T19:01:48.212Z,5.65
2022-11-15T19:04:19.975Z,6.80
2022-11-15T19:06:50.320Z,6.68
2022-11-15T19:09:19.871Z,6.20
2022-11-15T19:11:51.537Z,6.75
2022-11-15T19:14:24.200Z,6.45
2022-11-15T19:16:55.172Z,6.45
2022-11-15T19:19:27.760Z,6.55
2022-11-15T19:21:57.475Z,5.80
2022-11-15T19:24:27.204Z,6.20
2022-11-15T19:26:54.944Z,6.03
2022-11-15T19:29:22.157Z,6.10
2022-11-15T19:31:49.379Z,6.47
2022-11-15T19:34:17.848Z,6.40
2022-11-15T19:36:45.546Z,6.55
2022-11-15T19:39:17.892Z,6.97
2022-11-15T19:41:46.660Z,7.82
2022-11-15T19:44:14.790Z,9.02
2022-11-15T19:46:42.408Z,6.85
2022-11-15T19:49:11.267Z,6.70
2022-11-15T19:51:47.169Z,7.18
2022-11-15T19:54:16.896Z,7.70
2022-11-15T19:56:44.298Z,8.27
2022-11-15T19:59:11.873Z,7.03
2022-11-15T20:01:39.665Z,8.32
2022-11-15T20:04:10.041Z,8.30
2022-11-15T20:06:42.437Z,8.45
2022-11-15T20:09:16.031Z,7.22
2022-11-15T20:11:43.913Z,8.00
2022-11-15T20:14:13.036Z,8.07
2022-11-15T20:16:41.202Z,8.60
2022-11-15T20:19:12.267Z,8.60
2022-11-15T20:21:39.605Z,8.65
2022-11-15T20:24:07.658Z,9.05
2022-11-15T20:26:35.625Z,9.27
2022-11-15T20:29:03.508Z,9.63
2022-11-15T20:31:31.838Z,9.30
2022-11-15T20:33:59.458Z,10.45
2022-11-15T20:36:26.793Z,9.23
2022-11-15T20:39:00.838Z,8.80
2022-11-15T20:41:28.313Z,8.68
2022-11-15T20:43:56.233Z,10.38
2022-11-15T20:46:23.494Z,8.98
2022-11-15T20:48:50.629Z,9.02
2022-11-15T20:51:19.368Z,9.23
2022-11-15T20:53:48.189Z,9.55
2022-11-15T20:56:22.170Z,10.68
2022-11-15T20:58:50.946Z,9.07
2022-11-15T21:01:27.173Z,9.63
2022-11-15T21:03:56.155Z,9.98
2022-11-15T21:06:25.849Z,12.45
2022-11-15T21:09:13.492Z,11.10
2022-11-15T21:14:27.244Z,10.15
2022-11-15T21:16:54.550Z,9.38
2022-11-15T21:19:27.237Z,8.57
2022-11-15T21:21:58.802Z,8.63
2022-11-15T21:24:26.509Z,9.55
2022-11-15T21:26:55.508Z,9.57
2022-11-15T21:29:23.323Z,11.73
2022-11-15T21:31:53.223Z,10.93
2022-11-15T21:34:21.154Z,10.65
2022-11-15T21:36:48.337Z,8.43
2022-11-15T21:39:15.643Z,8.60
2022-11-15T21:41:42.937Z,8.05
2022-11-15T21:44:10.195Z,6.70
2022-11-15T21:46:37.411Z,7.07
2022-11-15T21:49:06.635Z,8.45
2022-11-15T21:51:34.434Z,7.13
2022-11-15T21:54:02.026Z,6.63
2022-11-15T21:56:30.494Z,7.00
2022-11-15T21:58:58.034Z,7.35
2022-11-15T22:01:46.807Z,7.72
2022-11-15T22:04:15.131Z,6.80
2022-11-15T22:06:43.462Z,7.32
2022-11-15T22:09:10.916Z,7.13
2022-11-15T22:11:38.172Z,7.13
2022-11-15T22:14:05.401Z,7.75
2022-11-15T22:16:33.315Z,7.28
2022-11-15T22:19:00.561Z,8.15
2022-11-15T22:21:27.831Z,7.63
2022-11-15T22:23:55.011Z,7.85
2022-11-15T22:26:24.018Z,7.78
2022-11-15T22:28:51.913Z,7.22
2022-11-15T22:31:19.334Z,8.13
2022-11-15T22:33:46.867Z,6.65
2022-11-15T22:36:14.141Z,7.25
2022-11-15T22:38:41.503Z,8.15
2022-11-15T22:41:08.970Z,7.88
2022-11-15T22:43:36.230Z,7.85
2022-11-15T22:46:05.086Z,8.02
2022-11-15T22:48:37.587Z,8.00
2022-11-15T22:51:06.359Z,8.27
2022-11-15T22:53:34.549Z,7.78
2022-11-15T22:56:06.019Z,7.78
2022-11-15T22:58:34.644Z,8.27
2022-11-15T23:01:05.658Z,7.57
2022-11-15T23:03:34.489Z,7.72
2022-11-15T23:06:09.145Z,8.75
2022-11-15T23:08:36.649Z,9.50
2022-11-15T23:11:23.655Z,8.68
2022-11-15T23:13:52.827Z,9.32
2022-11-15T23:16:25.576Z,8.70
2022-11-15T23:18:59.628Z,10.02
2022-11-15T23:21:51.472Z,8.68
2022-11-15T23:24:19.131Z,7.88
2022-11-15T23:26:51.269Z,8.80
2022-11-15T23:29:22.910Z,9.38
2022-11-15T23:32:08.747Z,9.25
2022-11-15T23:34:40.526Z,8.65
2022-11-15T23:37:11.996Z,9.07
2022-11-15T23:39:39.705Z,9.32
2022-11-15T23:42:09.303Z,9.27
2022-11-15T23:44:37.168Z,9.57
2022-11-15T23:47:04.791Z,9.68
2022-11-15T23:49:31.963Z,10.02
2022-11-15T23:51:59.100Z,9.30
2022-11-15T23:54:26.314Z,9.25
2022-11-15T23:56:53.488Z,9.68
2022-11-15T23:59:20.672Z,9.20
